Time;durP1;ratioP1;P1;durP2;ratioP2;P2;SDS_P1;SDS_P2;PMS_P1;PMS_P2;Temp;Humidity;BMP_temperature;BMP_pressure;BME280_temperature;BME280_humidity;BME280_pressure;Samples;Min_cycle;Max_cycle;Signal;HPM_P1;HPM_P2
2021/01/14 00:00:00;;;;;;;3.90;2.80;;;;;;;22.95;37.42;94411.00;4937845;29;20090;-78
2021/01/14 00:02:26;;;;;;;4.20;2.70;;;;;;;22.92;37.20;94412.03;4936765;29;20095;-79
2021/01/14 00:04:51;;;;;;;3.70;2.67;;;;;;;22.60;37.08;94379.91;4937075;29;20024;-77
2021/01/14 00:07:18;;;;;;;4.55;3.17;;;;;;;22.87;37.32;94405.94;4935918;29;20031;-78
2021/01/14 00:09:43;;;;;;;4.78;3.10;;;;;;;22.84;37.15;94406.97;4937510;29;20028;-79
2021/01/14 00:12:09;;;;;;;4.25;3.10;;;;;;;22.83;37.41;94402.81;4937336;29;20027;-79
2021/01/14 00:14:35;;;;;;;4.47;3.05;;;;;;;22.85;37.27;94400.28;4937370;29;20032;-79
2021/01/14 00:17:00;;;;;;;4.72;2.97;;;;;;;22.85;37.34;94409.19;4937539;29;20031;-79
2021/01/14 00:19:26;;;;;;;4.28;2.72;;;;;;;22.85;37.21;94413.91;4937182;29;20090;-80
2021/01/14 00:21:51;;;;;;;4.25;3.10;;;;;;;22.84;37.14;94415.16;4937044;29;20485;-80
2021/01/14 00:24:17;;;;;;;4.85;2.97;;;;;;;22.84;37.42;94409.69;4937397;29;20157;-78
2021/01/14 00:26:42;;;;;;;4.22;2.80;;;;;;;22.59;37.16;94381.16;4937259;29;20034;-79
2021/01/14 00:29:08;;;;;;;3.80;2.63;;;;;;;22.77;37.22;94407.59;4937503;29;20050;-79
2021/01/14 00:31:34;;;;;;;4.25;3.00;;;;;;;22.77;37.13;94410.31;4952845;28;20023;-79
2021/01/14 00:33:59;;;;;;;5.15;3.33;;;;;;;22.75;37.38;94410.09;4976245;28;20060;-79
2021/01/14 00:37:50;;;;;;;3.55;2.63;;;;;;;22.73;37.48;94412.59;4975424;28;20031;-79
2021/01/14 00:39:21;;;;;;;4.60;3.10;;;;;;;22.68;37.46;94413.44;4974478;28;20092;-79
2021/01/14 00:41:47;;;;;;;3.85;2.70;;;;;;;22.70;37.55;94408.19;4973910;28;20125;-79
2021/01/14 00:44:12;;;;;;;4.47;3.00;;;;;;;22.68;37.50;94414.16;4974651;28;20572;-80
2021/01/14 00:46:38;;;;;;;4.05;2.70;;;;;;;22.71;37.23;94409.69;4974355;28;20050;-79
2021/01/14 00:49:04;;;;;;;4.90;2.65;;;;;;;22.67;37.40;94417.41;4975890;28;20041;-80
2021/01/14 00:51:36;;;;;;;3.30;2.40;;;;;;;22.70;37.43;94417.09;4975573;28;20124;-80
2021/01/14 00:54:02;;;;;;;5.05;3.10;;;;;;;22.70;37.37;94416.38;4975332;28;20030;-80
2021/01/14 00:56:34;;;;;;;3.10;2.50;;;;;;;22.66;37.26;94415.94;4975455;28;20543;-79
2021/01/14 00:59:00;;;;;;;3.53;2.38;;;;;;;22.65;37.65;94419.91;4975444;28;20117;-80
2021/01/14 01:01:26;;;;;;;4.05;2.47;;;;;;;22.63;37.64;94416.97;4975346;28;20523;-79
2021/01/14 01:03:52;;;;;;;4.03;2.58;;;;;;;22.67;37.63;94412.69;4975044;28;20471;-79
2021/01/14 01:06:21;;;;;;;3.97;2.70;;;;;;;22.67;37.25;94407.25;4974992;28;20033;-79
2021/01/14 01:08:47;;;;;;;4.57;2.77;;;;;;;22.66;37.56;94410.47;4958294;28;20041;-79
2021/01/14 01:11:13;;;;;;;3.97;2.67;;;;;;;22.65;37.54;94403.59;4974747;28;20550;-79
2021/01/14 01:13:38;;;;;;;3.42;2.67;;;;;;;22.63;37.78;94411.53;4974036;28;20081;-79
2021/01/14 01:16:04;;;;;;;3.92;2.42;;;;;;;22.60;37.67;94407.88;4973548;28;20030;-79
2021/01/14 01:18:29;;;;;;;3.72;2.50;;;;;;;22.62;37.53;94410.06;4975173;28;20033;-79
2021/01/14 01:20:55;;;;;;;4.70;2.83;;;;;;;22.62;37.54;94410.06;4974912;28;20031;-79
2021/01/14 01:23:20;;;;;;;3.95;2.80;;;;;;;22.61;37.72;94409.31;4974710;28;20045;-79
2021/01/14 01:25:46;;;;;;;3.72;2.38;;;;;;;22.61;37.29;94408.59;4974085;28;20463;-80
2021/01/14 01:28:11;;;;;;;3.60;2.55;;;;;;;22.60;37.51;94407.13;4975643;28;20496;-79
2021/01/14 01:30:36;;;;;;;4.05;2.40;;;;;;;22.60;37.63;94402.41;4975308;28;20424;-80
2021/01/14 01:33:05;;;;;;;4.35;2.60;;;;;;;22.57;37.57;94392.56;4974791;28;20514;-79
2021/01/14 01:35:30;;;;;;;4.97;2.80;;;;;;;22.49;37.83;94390.97;4974269;28;20158;-79
2021/01/14 01:37:56;;;;;;;3.70;2.40;;;;;;;22.44;37.83;94389.06;4974682;28;20031;-79
2021/01/14 01:40:21;;;;;;;3.60;2.50;;;;;;;22.41;37.62;94381.94;4974522;28;20081;-79
2021/01/14 01:42:54;;;;;;;4.05;2.50;;;;;;;22.41;37.56;94388.09;4974471;28;20035;-80
2021/01/14 01:45:19;;;;;;;3.42;2.35;;;;;;;22.42;37.51;94391.59;4974409;28;20081;-80
2021/01/14 01:47:45;;;;;;;3.92;2.40;;;;;;;22.44;37.63;94389.06;4974423;28;20504;-78
2021/01/14 01:50:10;;;;;;;3.55;2.60;;;;;;;22.45;37.59;94387.81;4973373;28;20031;-78
2021/01/14 01:52:36;;;;;;;3.40;2.15;;;;;;;22.47;37.51;94393.47;4974286;28;20161;-78
2021/01/14 01:55:02;;;;;;;3.88;2.58;;;;;;;22.49;37.38;94380.09;4974283;28;20035;-79
2021/01/14 01:57:28;;;;;;;4.30;2.47;;;;;;;22.46;37.43;94364.78;4974242;28;20038;-79
2021/01/14 01:59:54;;;;;;;3.03;2.17;;;;;;;22.49;37.44;94371.91;4957358;28;20516;-79
2021/01/14 02:02:28;;;;;;;3.33;2.40;;;;;;;22.50;37.45;94370.69;4974307;28;20041;-78
2021/01/14 02:04:54;;;;;;;3.20;2.10;;;;;;;22.48;37.64;94362.28;4974007;28;20039;-79
2021/01/14 02:07:34;;;;;;;3.53;2.40;;;;;;;22.48;37.49;94367.72;4974630;28;20035;-79
2021/01/14 02:10:00;;;;;;;4.28;2.83;;;;;;;22.47;37.42;94377.16;4973754;28;20030;-79
2021/01/14 02:12:32;;;;;;;3.30;2.10;;;;;;;22.46;37.33;94372.94;4974251;28;20034;-79
2021/01/14 02:14:57;;;;;;;3.80;2.67;;;;;;;22.44;37.47;94367.31;4972685;28;20029;-79
2021/01/14 02:17:28;;;;;;;3.22;2.50;;;;;;;22.41;37.62;94363.63;4972617;28;20057;-79
2021/01/14 02:19:54;;;;;;;3.25;2.28;;;;;;;22.45;37.60;94363.31;4973369;28;20416;-79
2021/01/14 02:22:25;;;;;;;3.85;2.42;;;;;;;22.42;37.68;94364.38;4973159;28;20035;-79
2021/01/14 02:25:15;;;;;;;3.95;2.50;;;;;;;22.43;37.75;94361.13;4956985;28;20089;-80
2021/01/14 02:27:41;;;;;;;;;;;;;;;22.42;37.69;94364.38;4974197;28;20043;-80
2021/01/14 02:30:09;;;;;;;3.78;2.28;;;;;;;22.44;37.67;94357.16;4973144;28;20402;-79
2021/01/14 02:32:34;;;;;;;3.67;2.35;;;;;;;22.43;37.44;94357.66;4973288;28;20473;-79
2021/01/14 02:35:00;;;;;;;3.40;2.35;;;;;;;22.42;37.51;94353.50;4973596;28;20043;-79
2021/01/14 02:37:25;;;;;;;3.17;2.28;;;;;;;22.40;37.35;94361.44;4974265;28;20033;-80
2021/01/14 02:39:51;;;;;;;3.80;2.60;;;;;;;22.38;37.60;94344.91;4974480;28;20050;-79
2021/01/14 02:42:16;;;;;;;2.97;2.15;;;;;;;22.41;37.63;94357.47;4974187;28;20484;-79
2021/01/14 02:44:42;;;;;;;3.42;2.38;;;;;;;22.39;37.55;94353.78;4973134;28;20514;-79
2021/01/14 02:47:07;;;;;;;3.13;2.38;;;;;;;22.38;37.87;94358.50;4974453;28;20023;-78
2021/01/14 02:49:37;;;;;;;3.47;2.20;;;;;;;22.39;37.74;94354.53;4956651;28;20578;-79
2021/01/14 02:52:03;;;;;;;;;;;;;;;22.37;37.71;94362.47;4974767;28;20110;-80
2021/01/14 02:54:28;;;;;;;3.05;2.22;;;;;;;22.40;37.57;94361.44;4974269;28;19950;-79
2021/01/14 02:56:54;;;;;;;3.42;2.35;;;;;;;22.40;37.50;94371.56;4973571;28;20027;-79
2021/01/14 02:59:19;;;;;;;3.47;2.35;;;;;;;22.40;37.51;94372.31;4956876;28;20030;-79
2021/01/14 03:01:45;;;;;;;2.58;1.77;;;;;;;22.39;37.61;94370.84;4973566;28;20062;-79
2021/01/14 03:04:10;;;;;;;2.83;2.00;;;;;;;22.37;37.47;94373.34;4974153;28;20023;-80
2021/01/14 03:06:36;;;;;;;3.25;2.13;;;;;;;22.38;37.48;94371.38;4973413;28;20487;-79
2021/01/14 03:09:02;;;;;;;3.13;2.05;;;;;;;22.34;37.59;94363.50;4973587;28;20022;-79
2021/01/14 03:11:32;;;;;;;2.97;1.83;;;;;;;22.34;37.65;94358.06;4974831;28;20035;-77
2021/01/14 03:13:58;;;;;;;3.25;2.05;;;;;;;22.17;37.66;94338.50;4964067;28;20095;-79
2021/01/14 03:16:24;;;;;;;4.13;2.28;;;;;;;22.33;37.59;94353.88;4936625;29;20132;-79
2021/01/14 03:18:50;;;;;;;2.80;2.35;;;;;;;22.31;37.78;94350.94;4936715;29;20083;-79
2021/01/14 03:21:22;;;;;;;2.90;2.05;;;;;;;22.18;37.60;94323.69;4936412;29;20058;-79
2021/01/14 03:23:48;;;;;;;3.72;2.05;;;;;;;22.33;37.33;94351.16;4936121;29;20024;-79
2021/01/14 03:26:14;;;;;;;2.50;1.73;;;;;;;22.35;37.45;94358.81;4934162;29;20035;-79
2021/01/14 03:28:40;;;;;;;3.05;1.98;;;;;;;22.35;37.60;94351.38;4935673;29;20058;-79
2021/01/14 03:31:05;;;;;;;2.85;2.03;;;;;;;22.33;37.48;94340.28;4935469;29;20043;-78
2021/01/14 03:33:31;;;;;;;3.58;2.00;;;;;;;22.35;37.48;94340.50;4943527;29;20518;-76
2021/01/14 03:35:56;;;;;;;3.10;1.80;;;;;;;22.09;37.49;94302.31;4944502;29;20031;-74
2021/01/14 03:38:22;;;;;;;3.33;1.88;;;;;;;22.31;37.52;94337.34;4944356;29;20452;-76
2021/01/14 03:40:47;;;;;;;2.83;1.90;;;;;;;22.29;37.30;94339.84;4945799;29;20028;-76
2021/01/14 03:43:13;;;;;;;3.17;2.13;;;;;;;22.28;37.79;94332.91;4944705;29;20028;-79
2021/01/14 03:45:38;;;;;;;2.58;1.75;;;;;;;22.28;37.65;94332.91;4937553;29;20051;-79
2021/01/14 03:48:04;;;;;;;2.90;1.90;;;;;;;22.27;37.54;94315.16;4938458;29;20042;-79
2021/01/14 03:50:30;;;;;;;3.25;1.98;;;;;;;22.30;37.69;94314.13;4938431;29;20043;-79
2021/01/14 03:52:55;;;;;;;2.72;1.90;;;;;;;22.29;37.58;94309.91;4938121;29;20036;-78
2021/01/14 03:55:20;;;;;;;2.92;1.80;;;;;;;22.26;37.62;94302.06;4938105;29;20028;-79
2021/01/14 03:57:46;;;;;;;2.45;1.80;;;;;;;22.18;37.69;94306.59;4942220;28;20485;-78
2021/01/14 04:00:13;;;;;;;2.85;1.75;;;;;;;22.12;37.86;94309.44;4977007;28;20467;-79
2021/01/14 04:02:38;;;;;;;3.78;1.85;;;;;;;22.04;37.68;94303.09;4976297;28;20045;-78
2021/01/14 04:05:04;;;;;;;4.00;2.13;;;;;;;22.01;37.90;94300.69;4974729;28;20030;-79
2021/01/14 04:07:29;;;;;;;2.75;1.90;;;;;;;22.01;37.85;94295.97;4976078;28;20031;-78
2021/01/14 04:09:55;;;;;;;3.20;1.80;;;;;;;22.04;37.97;94302.38;4975889;28;20022;-80
2021/01/14 04:12:28;;;;;;;2.70;1.88;;;;;;;22.07;37.80;94298.63;4975468;28;20101;-79
2021/01/14 04:14:54;;;;;;;3.05;1.95;;;;;;;22.14;37.75;94292.59;4975886;28;20038;-79
2021/01/14 04:17:19;;;;;;;2.58;1.65;;;;;;;22.17;37.64;94295.00;4974352;28;20050;-79
2021/01/14 04:19:46;;;;;;;2.95;1.70;;;;;;;22.07;37.74;94269.44;4975807;28;20026;-79
2021/01/14 04:22:13;;;;;;;3.15;2.13;;;;;;;22.20;37.56;94287.81;4975304;28;20039;-79
2021/01/14 04:24:38;;;;;;;3.13;1.73;;;;;;;22.22;37.43;94290.75;4961519;28;20527;-79
2021/01/14 04:27:04;;;;;;;3.22;2.00;;;;;;;22.24;37.30;94283.56;4955907;28;20023;-76
2021/01/14 04:29:30;;;;;;;3.08;2.05;;;;;;;22.21;37.48;94273.72;4966092;28;20054;-77
2021/01/14 04:31:56;;;;;;;2.70;1.77;;;;;;;22.22;37.28;94264.28;4959194;28;20015;-76
2021/01/14 04:34:21;;;;;;;3.10;1.95;;;;;;;22.31;37.66;94274.78;4973827;28;20403;-76
2021/01/14 04:36:47;;;;;;;2.67;1.80;;;;;;;22.32;37.62;94273.53;4930114;28;20039;-76
2021/01/14 04:39:12;;;;;;;3.00;1.70;;;;;;;22.33;37.73;94269.56;4969329;28;20492;-76
2021/01/14 04:41:48;;;;;;;3.28;1.77;;;;;;;22.37;37.60;94266.53;4970039;28;20023;-77
2021/01/14 04:44:13;;;;;;;2.80;1.60;;;;;;;22.42;37.54;94266.44;4972724;28;20035;-77
2021/01/14 04:46:40;;;;;;;3.13;1.75;;;;;;;22.45;37.29;94276.25;4964852;28;20074;-79
2021/01/14 04:49:05;;;;;;;2.47;1.90;;;;;;;22.52;37.27;94276.38;4954426;28;20029;-77
2021/01/14 04:51:32;;;;;;;3.25;2.13;;;;;;;22.38;37.05;94244.25;4959731;28;20031;-79
2021/01/14 04:54:01;;;;;;;2.72;1.77;;;;;;;22.66;37.08;94268.97;4956331;28;20110;-79
2021/01/14 04:56:27;;;;;;;2.95;1.83;;;;;;;22.70;36.95;94263.94;4972913;28;20495;-80
2021/01/14 04:58:52;;;;;;;2.78;1.90;;;;;;;22.79;36.59;94255.38;4963662;28;20090;-80
2021/01/14 05:01:21;;;;;;;1.98;1.48;;;;;;;22.87;36.68;94256.19;4960141;28;20075;-76
2021/01/14 05:03:51;;;;;;;4.03;2.00;;;;;;;22.94;36.48;94257.09;4954898;28;20476;-78
2021/01/14 05:06:23;;;;;;;2.67;1.73;;;;;;;23.02;36.13;94263.34;4961657;28;20027;-77
2021/01/14 05:08:50;;;;;;;3.55;2.00;;;;;;;23.11;36.32;94259.50;4954856;28;20329;-75
2021/01/14 05:11:17;;;;;;;2.35;1.60;;;;;;;23.19;36.25;94244.69;4948341;28;20091;-75
2021/01/14 05:13:44;;;;;;;2.85;1.80;;;;;;;23.26;36.04;94248.75;4950376;28;20488;-75
2021/01/14 05:16:10;;;;;;;2.22;1.45;;;;;;;23.22;35.71;94221.84;4950296;28;20100;-76
2021/01/14 05:18:35;;;;;;;2.78;1.75;;;;;;;23.42;35.90;94240.25;4953939;28;20122;-77
2021/01/14 05:21:01;;;;;;;1.88;1.42;;;;;;;23.46;35.86;94235.94;4955367;28;20038;-76
2021/01/14 05:23:31;;;;;;;2.88;1.80;;;;;;;23.53;35.48;94240.03;4954655;28;20030;-77
2021/01/14 05:25:57;;;;;;;2.30;1.50;;;;;;;23.60;35.44;94239.34;4944352;28;20542;-75
2021/01/14 05:28:23;;;;;;;2.38;1.80;;;;;;;23.68;35.59;94234.75;4950803;28;20119;-78
2021/01/14 05:30:49;;;;;;;2.88;1.80;;;;;;;23.73;34.84;94214.81;4949666;28;20027;-79
2021/01/14 05:33:19;;;;;;;2.30;1.67;;;;;;;23.78;34.81;94211.22;4959032;28;20045;-78
2021/01/14 05:35:48;;;;;;;2.70;1.63;;;;;;;23.84;35.15;94214.53;4947302;28;20039;-77
2021/01/14 05:38:29;;;;;;;2.83;1.53;;;;;;;23.86;35.00;94201.84;4955952;28;20046;-80
2021/01/14 05:41:18;;;;;;;2.25;1.50;;;;;;;23.94;34.26;94208.81;4949373;28;20019;-75
2021/01/14 05:43:53;;;;;;;2.17;1.63;;;;;;;23.95;34.76;94210.28;4973463;28;20030;-77
2021/01/14 05:46:22;;;;;;;2.47;1.52;;;;;;;24.09;34.64;94200.06;4949178;28;20051;-76
2021/01/14 05:48:49;;;;;;;3.40;1.60;;;;;;;24.07;34.24;94200.59;4961021;28;20035;-81
2021/01/14 05:51:15;;;;;;;2.15;1.40;;;;;;;24.10;34.25;94207.69;4954801;28;20107;-78
2021/01/14 05:53:58;;;;;;;2.22;1.50;;;;;;;24.17;34.58;94215.22;4954195;28;20027;-79
2021/01/14 05:56:36;;;;;;;2.65;1.52;;;;;;;24.17;34.50;94201.59;4966770;28;20030;-79
2021/01/14 05:59:04;;;;;;;2.22;1.40;;;;;;;24.16;34.30;94205.56;4969636;28;20099;-87
2021/01/14 06:01:29;;;;;;;2.67;1.55;;;;;;;24.22;34.46;94210.91;4963238;28;20047;-81
2021/01/14 06:03:55;;;;;;;2.30;1.50;;;;;;;24.30;34.06;94204.22;4955029;28;20069;-78
2021/01/14 06:06:21;;;;;;;2.17;1.50;;;;;;;24.25;34.65;94209.84;4935169;29;20016;-76
2021/01/14 06:08:47;;;;;;;2.83;1.63;;;;;;;24.17;34.47;94198.84;4951730;28;20035;-82
2021/01/14 06:11:22;;;;;;;2.03;1.23;;;;;;;24.36;34.39;94221.22;4936208;29;20110;-77
2021/01/14 06:13:48;;;;;;;2.22;1.40;;;;;;;24.47;34.24;94221.66;4955348;28;20530;-76
2021/01/14 06:16:13;;;;;;;2.05;1.40;;;;;;;24.49;34.39;94229.31;4958459;28;20038;-75
2021/01/14 06:18:39;;;;;;;2.70;1.55;;;;;;;24.51;34.07;94226.78;4956614;28;20023;-75
2021/01/14 06:21:05;;;;;;;1.98;1.27;;;;;;;24.58;33.77;94231.56;4971335;28;20566;-79
2021/01/14 06:23:44;;;;;;;2.55;1.48;;;;;;;24.59;34.37;94243.97;4967111;28;20023;-75
2021/01/14 06:26:09;;;;;;;2.00;1.30;;;;;;;24.60;34.14;94245.41;4962945;28;20024;-76
2021/01/14 06:28:35;;;;;;;1.98;1.38;;;;;;;24.59;34.18;94241.25;4955449;28;20046;-76
2021/01/14 06:31:08;;;;;;;2.10;1.50;;;;;;;24.64;33.80;94245.81;4953584;28;20027;-76
2021/01/14 06:33:34;;;;;;;2.47;1.50;;;;;;;24.71;33.77;94245.88;4963700;28;20034;-84
2021/01/14 06:36:10;;;;;;;2.08;1.58;;;;;;;24.70;34.02;94243.66;4954311;28;20047;-84
2021/01/14 06:38:42;;;;;;;2.47;1.30;;;;;;;24.76;33.76;94244.25;4969815;28;20483;-88
2021/01/14 06:41:18;;;;;;;2.13;1.50;;;;;;;24.67;33.69;94234.53;4962198;28;20027;-88
2021/01/14 06:43:45;;;;;;;2.75;1.60;;;;;;;24.57;33.94;94219.19;4962606;28;20027;-84
2021/01/14 06:46:15;;;;;;;1.88;1.30;;;;;;;24.76;33.77;94241.53;4967825;28;20058;-83
2021/01/14 06:48:43;;;;;;;;;;;;;;;24.75;34.19;94246.25;4958224;28;20055;-83
2021/01/14 06:51:09;;;;;;;1.77;1.40;;;;;;;24.82;33.74;94233.91;4953367;28;19918;-80
2021/01/14 06:53:34;;;;;;;2.00;1.27;;;;;;;24.84;33.82;94238.31;4967673;28;20113;-78
2021/01/14 06:56:00;;;;;;;2.17;1.50;;;;;;;24.88;33.71;94235.94;4966247;28;20070;-77
2021/01/14 06:58:25;;;;;;;2.20;1.40;;;;;;;24.89;33.26;94221.03;4965552;28;20030;-76
2021/01/14 07:00:51;;;;;;;1.80;1.30;;;;;;;24.96;33.31;94228.53;4968253;28;20081;-76
2021/01/14 07:03:22;;;;;;;2.13;1.40;;;;;;;24.96;33.58;94216.88;4958808;28;20031;-80
2021/01/14 07:05:53;;;;;;;2.20;1.48;;;;;;;25.12;33.19;94235.56;4964706;28;20042;-87
2021/01/14 07:08:35;;;;;;;2.22;1.40;;;;;;;25.15;33.17;94239.94;4963308;28;20050;-83
2021/01/14 07:11:02;;;;;;;3.25;1.42;;;;;;;25.14;32.91;94241.25;4962848;28;20028;-83
2021/01/14 07:13:32;;;;;;;2.55;1.67;;;;;;;25.01;33.03;94224.94;4966240;28;20141;-80
2021/01/14 07:15:58;;;;;;;3.13;1.65;;;;;;;25.02;32.97;94220.22;4932689;28;20042;-78
2021/01/14 07:21:20;;;;;;;2.30;1.40;;;;;;;25.18;32.98;94230.66;4949737;23;20066;-79
2021/01/14 07:23:50;;;;;;;2.45;1.50;;;;;;;25.26;32.59;94223.25;4931472;28;20777;-82
2021/01/14 07:26:16;;;;;;;3.17;1.77;;;;;;;25.31;32.48;94230.56;4969260;28;20491;-75
2021/01/14 07:28:41;;;;;;;2.00;1.50;;;;;;;25.34;32.24;94221.28;4965246;28;20039;-76
2021/01/14 07:31:26;;;;;;;2.03;1.67;;;;;;;25.25;32.64;94216.31;4960704;28;20038;-75
2021/01/14 07:33:52;;;;;;;3.15;2.08;;;;;;;25.31;32.71;94211.44;4969441;28;20039;-74
2021/01/14 07:36:25;;;;;;;2.67;1.80;;;;;;;25.34;32.73;94218.53;4971050;28;20112;-74
2021/01/14 07:38:57;;;;;;;3.20;1.83;;;;;;;25.25;32.49;94205.38;4970660;28;20085;-74
2021/01/14 07:41:22;;;;;;;3.60;2.00;;;;;;;25.11;32.58;94195.88;4970364;28;20018;-74
2021/01/14 07:43:51;;;;;;;3.30;1.90;;;;;;;24.97;32.50;94186.28;4965083;28;20027;-74
2021/01/14 07:46:27;;;;;;;3.05;2.00;;;;;;;25.05;32.56;94198.03;4945057;28;20019;-79
2021/01/14 07:48:53;;;;;;;2.90;1.90;;;;;;;25.10;32.76;94188.22;4966556;28;20609;-74
2021/01/14 07:51:19;;;;;;;3.50;2.22;;;;;;;25.01;32.84;94183.97;4959271;28;20032;-74
2021/01/14 07:54:04;;;;;;;2.38;1.80;;;;;;;24.95;32.86;94180.63;4965256;28;20080;-73
2021/01/14 07:56:29;;;;;;;3.33;1.85;;;;;;;24.86;32.75;94164.03;4958158;28;20026;-75
2021/01/14 07:58:58;;;;;;;2.53;1.60;;;;;;;25.00;32.68;94163.38;4952800;28;20037;-74
2021/01/14 08:01:23;;;;;;;2.92;1.75;;;;;;;24.96;33.10;94184.84;4970119;28;20106;-74
2021/01/14 08:03:49;;;;;;;3.35;1.80;;;;;;;24.86;33.27;94159.28;4968749;28;20123;-74
2021/01/14 08:06:34;;;;;;;3.20;1.77;;;;;;;24.80;33.58;94176.34;4969290;28;20025;-74
2021/01/14 08:09:06;;;;;;;3.17;1.85;;;;;;;24.78;33.86;94178.91;4969976;28;20062;-73
2021/01/14 08:11:47;;;;;;;4.65;2.15;;;;;;;24.72;33.58;94181.06;4949817;28;20024;-74
2021/01/14 08:14:36;;;;;;;2.88;2.20;;;;;;;24.71;33.98;94179.59;4957464;28;20042;-74
2021/01/14 08:17:02;;;;;;;5.10;2.35;;;;;;;24.63;33.50;94189.75;4936307;28;20420;-74
2021/01/14 08:19:31;;;;;;;3.70;2.22;;;;;;;24.54;34.06;94192.97;4931425;29;20028;-74
2021/01/14 08:22:00;;;;;;;2.87;2.07;;;;;;;24.48;33.76;94178.72;4953798;28;20512;-74
2021/01/14 08:24:32;;;;;;;3.97;2.40;;;;;;;24.38;34.32;94150.47;4952667;28;20038;-75
2021/01/14 08:27:06;;;;;;;2.53;1.98;;;;;;;24.35;33.94;94146.09;4954205;28;20038;-74
2021/01/14 08:29:39;;;;;;;3.88;2.63;;;;;;;24.29;33.92;94167.31;4965821;28;20389;-73
2021/01/14 08:32:20;;;;;;;3.63;2.20;;;;;;;24.27;34.06;94164.34;4966325;28;20027;-74
2021/01/14 08:34:48;;;;;;;3.75;2.80;;;;;;;24.26;34.28;94157.47;4966648;28;20054;-74
2021/01/14 08:37:14;;;;;;;3.38;2.28;;;;;;;24.23;34.30;94135.94;4966224;28;20031;-74
2021/01/14 08:39:40;;;;;;;3.25;2.05;;;;;;;24.15;34.24;94118.81;4953599;28;20499;-74
2021/01/14 08:42:10;;;;;;;4.40;2.35;;;;;;;24.11;34.87;94113.69;4968558;28;20034;-74
2021/01/14 08:44:35;;;;;;;3.85;2.40;;;;;;;24.06;34.96;94100.91;4967363;28;20023;-73
2021/01/14 08:47:01;;;;;;;3.95;2.47;;;;;;;24.05;35.01;94098.72;4964347;28;20034;-74
2021/01/14 08:49:35;;;;;;;3.95;2.40;;;;;;;24.00;34.57;94097.59;4971673;28;20030;-74
2021/01/14 08:52:04;;;;;;;5.20;2.85;;;;;;;23.99;34.63;94111.78;4941994;29;20475;-74
2021/01/14 08:54:30;;;;;;;4.45;2.50;;;;;;;23.95;34.47;94101.22;4955282;29;20035;-74
2021/01/14 08:57:03;;;;;;;4.28;3.00;;;;;;;23.91;34.87;94089.91;4956925;28;20023;-74
2021/01/14 08:59:28;;;;;;;5.70;2.90;;;;;;;23.86;34.62;94088.06;4956207;28;20041;-74
2021/01/14 09:01:56;;;;;;;4.38;2.80;;;;;;;23.86;34.64;94093.50;4954885;28;20031;-74
2021/01/14 09:04:25;;;;;;;4.72;2.90;;;;;;;23.89;35.12;94081.53;4956622;28;20035;-75
2021/01/14 09:06:50;;;;;;;5.70;3.03;;;;;;;23.79;34.82;94057.28;4954912;29;20579;-74
2021/01/14 09:09:16;;;;;;;3.60;2.58;;;;;;;23.87;34.57;94056.09;4955069;29;20037;-74
2021/01/14 09:11:41;;;;;;;4.57;3.20;;;;;;;23.85;34.50;94044.25;4955072;28;20031;-73
2021/01/14 09:14:11;;;;;;;5.55;3.15;;;;;;;23.83;34.99;94049.50;4955770;29;20035;-74
2021/01/14 09:16:37;;;;;;;4.70;3.17;;;;;;;23.80;35.10;94059.47;4955855;28;20037;-73
2021/01/14 09:19:16;;;;;;;6.05;3.30;;;;;;;23.77;34.68;94051.66;4954681;29;20053;-74
2021/01/14 09:21:42;;;;;;;4.38;3.30;;;;;;;23.76;34.65;94039.28;4956369;28;20067;-74
2021/01/14 09:24:12;;;;;;;5.03;3.10;;;;;;;23.75;34.86;94026.91;4954782;28;20479;-73
2021/01/14 09:26:46;;;;;;;5.18;3.22;;;;;;;23.79;34.80;94030.03;4955538;28;20126;-73
2021/01/14 09:29:12;;;;;;;3.88;2.72;;;;;;;23.75;34.88;94026.91;4954437;28;20616;-74
2021/01/14 09:31:38;;;;;;;6.22;3.25;;;;;;;23.65;34.62;94012.31;4953621;28;20026;-74
2021/01/14 09:34:03;;;;;;;4.07;3.05;;;;;;;23.77;34.50;94021.66;4953099;28;20035;-74
2021/01/14 09:36:29;;;;;;;5.50;3.17;;;;;;;23.66;35.00;93997.41;4952817;29;20034;-74
2021/01/14 09:38:58;;;;;;;5.82;3.05;;;;;;;23.74;34.72;94009.09;4952203;29;20078;-75
2021/01/14 09:41:28;;;;;;;5.40;3.15;;;;;;;23.69;34.82;94007.22;4963910;28;20019;-74
2021/01/14 09:43:54;;;;;;;;;;;;;;;23.69;34.85;93996.31;4967275;28;20041;-74
2021/01/14 09:46:21;;;;;;;4.78;3.00;;;;;;;23.67;35.35;93982.50;4969666;28;19934;-76
2021/01/14 09:48:47;;;;;;;5.28;3.00;;;;;;;23.67;34.92;93974.34;4967057;28;20038;-76
2021/01/14 09:51:13;;;;;;;5.20;3.25;;;;;;;23.67;35.13;93974.34;4970352;28;20042;-76
2021/01/14 09:53:48;;;;;;;4.72;3.40;;;;;;;23.67;35.38;93966.16;4965294;28;20011;-76
2021/01/14 09:56:19;;;;;;;4.93;3.22;;;;;;;23.66;35.06;93959.25;4968612;28;20050;-80
2021/01/14 09:58:49;;;;;;;4.53;3.28;;;;;;;23.65;35.55;93952.34;4971857;28;20100;-74
2021/01/14 10:01:15;;;;;;;4.97;3.50;;;;;;;23.65;34.96;93957.78;4985013;28;20125;-73
2021/01/14 10:03:44;;;;;;;5.10;3.35;;;;;;;23.62;35.46;93958.84;4957935;28;20027;-76
2021/01/14 10:06:10;;;;;;;6.07;4.05;;;;;;;23.61;35.20;93962.81;4962709;28;20026;-75
2021/01/14 10:08:36;;;;;;;6.18;3.30;;;;;;;23.54;35.42;93955.31;4950627;28;20408;-77
2021/01/14 10:11:01;;;;;;;6.05;3.97;;;;;;;23.58;35.16;93961.88;4948442;28;20086;-72
2021/01/14 10:13:26;;;;;;;13.40;8.43;;;;;;;22.67;24.61;93957.47;4934407;29;20023;-71
2021/01/14 10:15:55;;;;;;;9.88;6.10;;;;;;;22.23;29.64;93949.59;4961239;28;20042;-76
2021/01/14 10:18:25;;;;;;;7.72;5.05;;;;;;;22.67;32.26;93971.09;4962796;28;20161;-79
2021/01/14 10:20:58;;;;;;;7.20;4.07;;;;;;;22.93;33.59;93967.03;4969025;28;20566;-78
2021/01/14 10:23:24;;;;;;;6.72;4.00;;;;;;;23.12;34.09;93962.13;4967183;28;20030;-74
2021/01/14 10:25:50;;;;;;;8.13;4.15;;;;;;;23.24;34.38;93957.81;4951536;28;20129;-74
2021/01/14 10:28:15;;;;;;;9.05;3.80;;;;;;;23.37;34.71;93971.38;4950776;28;20492;-75
2021/01/14 10:30:41;;;;;;;8.75;4.20;;;;;;;23.48;34.66;93965.63;4946830;28;20485;-75
2021/01/14 10:33:06;;;;;;;7.00;3.83;;;;;;;23.56;34.85;93956.25;4945746;28;20027;-75
2021/01/14 10:35:32;;;;;;;5.85;3.90;;;;;;;23.64;35.02;93951.59;4950911;28;20063;-75
2021/01/14 10:38:04;;;;;;;5.90;3.80;;;;;;;23.70;34.84;93954.91;4951060;28;20027;-75
2021/01/14 10:40:49;;;;;;;5.18;3.50;;;;;;;23.79;34.96;93961.88;4950812;28;20031;-74
2021/01/14 10:43:15;;;;;;;4.90;3.65;;;;;;;23.86;35.29;93953.00;4951037;28;20050;-74
2021/01/14 10:45:41;;;;;;;6.15;4.22;;;;;;;23.92;35.16;93949.56;4949391;28;20638;-75
2021/01/14 10:48:09;;;;;;;5.72;3.70;;;;;;;23.99;34.86;93943.44;4950978;28;20030;-75
2021/01/14 10:50:54;;;;;;;6.50;3.70;;;;;;;24.07;34.42;93938.75;4950895;28;20097;-82
2021/01/14 10:53:30;;;;;;;6.20;3.67;;;;;;;24.19;34.71;93934.41;4959123;28;20508;-76
2021/01/14 10:56:09;;;;;;;6.60;3.72;;;;;;;24.27;34.33;93924.25;4963072;28;20027;-77
2021/01/14 10:58:35;;;;;;;6.65;3.90;;;;;;;24.31;34.91;93921.91;4967735;28;20034;-79
2021/01/14 11:01:01;;;;;;;6.00;3.80;;;;;;;24.46;34.69;93941.09;4916202;28;20116;-76
2021/01/14 11:03:28;;;;;;;5.70;3.28;;;;;;;24.48;34.34;93944.00;4971303;28;20499;-80
2021/01/14 11:05:57;;;;;;;5.88;3.50;;;;;;;24.57;34.25;93957.13;4951552;28;20427;-78
2021/01/14 11:08:27;;;;;;;5.35;3.60;;;;;;;24.48;34.40;93949.44;4943931;28;20053;-80
2021/01/14 11:11:06;;;;;;;6.10;3.38;;;;;;;24.62;34.62;93953.47;4944515;29;20082;-81
2021/01/14 11:13:49;;;;;;;6.35;4.00;;;;;;;24.65;34.07;93964.06;4961898;28;20033;-81
2021/01/14 11:16:16;;;;;;;5.63;3.72;;;;;;;24.73;34.45;93948.44;4933072;28;20511;-80
2021/01/14 11:18:45;;;;;;;5.70;3.88;;;;;;;24.79;34.27;93940.06;4951086;28;20019;-78
2021/01/14 11:21:12;;;;;;;5.97;3.67;;;;;;;24.82;33.76;93941.72;4950063;28;20051;-78
2021/01/14 11:23:38;;;;;;;6.63;3.85;;;;;;;24.83;33.69;93936.44;4966945;28;20061;-78
2021/01/14 11:26:06;;;;;;;6.72;3.80;;;;;;;24.91;34.05;93931.69;4968917;28;20038;-75
2021/01/14 11:28:33;;;;;;;5.07;3.30;;;;;;;24.97;33.89;93934.97;4966032;28;20069;-71
2021/01/14 11:30:59;;;;;;;6.00;4.03;;;;;;;25.06;33.45;93926.28;4950765;28;20428;-71
2021/01/14 11:33:24;;;;;;;5.07;3.70;;;;;;;25.01;33.44;93905.34;4936818;28;20036;-71
2021/01/14 11:35:50;;;;;;;6.03;3.85;;;;;;;25.18;33.54;93915.72;4959221;28;20023;-71
2021/01/14 11:38:15;;;;;;;5.38;3.30;;;;;;;25.21;33.35;93903.69;4957398;28;20042;-71
2021/01/14 11:40:41;;;;;;;6.15;3.65;;;;;;;25.24;33.71;93903.31;4962121;28;20071;-71